Time;durP1;ratioP1;P1;durP2;ratioP2;P2;SDS_P1;SDS_P2;PMS_P1;PMS_P2;Temp;Humidity;BMP_temperature;BMP_pressure;BME280_temperature;BME280_humidity;BME280_pressure;Samples;Min_cycle;Max_cycle;Signal;HPM_P1;HPM_P2
2021/11/07 00:04:59;;;;;;;3.65;2.33;;;;;;;;;;5060403;28;20393;-69
2021/11/07 00:09:44;;;;;;;3.60;2.30;;;;;;;;;;5056024;28;20387;-69
2021/11/07 00:12:19;;;;;;;4.47;2.30;;;;;;;;;;5040707;28;20488;-69
2021/11/07 00:14:52;;;;;;;3.40;2.35;;;;;;;;;;5049903;28;20499;-69
2021/11/07 00:17:48;;;;;;;3.60;2.20;;;;;;;;;;5048770;28;20424;-69
2021/11/07 00:20:30;;;;;;;4.32;2.38;;;;;;;;;;5057369;28;20784;-69
2021/11/07 00:24:03;;;;;;;3.45;2.00;;;;;;;;;;5059865;28;20425;-69
2021/11/07 00:29:09;;;;;;;2.47;1.70;;;;;;;;;;5063913;28;20769;-70
2021/11/07 00:37:18;;;;;;;2.92;2.05;;;;;;;;;;5062855;28;20413;-68
2021/11/07 00:40:19;;;;;;;2.80;1.83;;;;;;;;;;5053188;28;20481;-69
2021/11/07 00:42:44;;;;;;;2.83;1.77;;;;;;;;;;5056224;28;20400;-68
2021/11/07 00:45:31;;;;;;;2.58;1.95;;;;;;;;;;5061040;28;21048;-69
2021/11/07 00:51:05;;;;;;;2.53;1.67;;;;;;;;;;5059960;28;20448;-68
2021/11/07 00:53:52;;;;;;;3.50;1.63;;;;;;;;;;5062226;28;20855;-68
2021/11/07 00:56:34;;;;;;;2.53;1.67;;;;;;;;;;5044797;28;20394;-67
2021/11/07 00:59:22;;;;;;;3.67;1.90;;;;;;;;;;5063811;28;20427;-68
2021/11/07 01:02:20;;;;;;;2.03;1.70;;;;;;;;;;5063866;28;20627;-68
2021/11/07 01:04:50;;;;;;;3.70;1.73;;;;;;;;;;5057022;28;20448;-68
2021/11/07 01:07:23;;;;;;;2.60;1.52;;;;;;;;;;5063745;28;20402;-67
2021/11/07 01:09:56;;;;;;;2.47;1.70;;;;;;;;;;5042746;28;20429;-67
2021/11/07 01:12:30;;;;;;;3.85;1.80;;;;;;;;;;5038403;28;20405;-67
2021/11/07 01:15:02;;;;;;;3.50;1.88;;;;;;;;;;5028590;28;20413;-67
2021/11/07 01:17:33;;;;;;;3.05;1.67;;;;;;;;;;5051942;28;20408;-68
2021/11/07 01:20:14;;;;;;;2.40;1.80;;;;;;;;;;5048260;28;20692;-68
2021/11/07 01:23:13;;;;;;;3.10;1.60;;;;;;;;;;5055830;28;20417;-68
2021/11/07 01:25:47;;;;;;;2.63;1.70;;;;;;;;;;5052595;28;20395;-68
2021/11/07 01:28:24;;;;;;;1.90;1.40;;;;;;;;;;5053652;28;20493;-68
2021/11/07 01:30:57;;;;;;;2.10;1.50;;;;;;;;;;5057943;28;20770;-68
2021/11/07 01:33:31;;;;;;;2.60;1.80;;;;;;;;;;5046609;28;20406;-67
2021/11/07 01:39:06;;;;;;;3.17;1.50;;;;;;;;;;5060898;28;20417;-68
2021/11/07 01:44:27;;;;;;;2.75;1.60;;;;;;;;;;5049838;28;20414;-69
2021/11/07 01:47:07;;;;;;;1.75;1.40;;;;;;;;;;5065712;28;20410;-69
2021/11/07 01:49:41;;;;;;;1.80;1.53;;;;;;;;;;5060645;28;20398;-69
2021/11/07 01:52:16;;;;;;;2.25;1.20;;;;;;;;;;5062224;28;20409;-69
2021/11/07 01:54:57;;;;;;;2.42;1.30;;;;;;;;;;5040219;28;20404;-69
2021/11/07 01:57:34;;;;;;;1.75;1.30;;;;;;;;;;5045547;28;20912;-69
2021/11/07 02:00:11;;;;;;;3.03;1.80;;;;;;;;;;5063791;28;20410;-69
2021/11/07 02:02:39;;;;;;;1.60;1.35;;;;;;;;;;5060593;28;20398;-69
2021/11/07 02:05:08;;;;;;;2.00;1.40;;;;;;;;;;5038404;28;20405;-69
2021/11/07 02:07:39;;;;;;;1.98;1.48;;;;;;;;;;5040854;28;20488;-69
2021/11/07 02:10:12;;;;;;;2.15;1.30;;;;;;;;;;5065748;28;20873;-69
2021/11/07 02:12:42;;;;;;;2.33;1.25;;;;;;;;;;5055710;28;20400;-69
2021/11/07 02:15:17;;;;;;;1.58;1.13;;;;;;;;;;5064586;28;20390;-69
2021/11/07 02:17:48;;;;;;;1.85;1.40;;;;;;;;;;5045637;28;20729;-68
2021/11/07 02:20:35;;;;;;;1.58;1.25;;;;;;;;;;5050537;28;20390;-69
2021/11/07 02:23:19;;;;;;;1.73;1.50;;;;;;;;;;5057161;28;20433;-69
2021/11/07 02:26:02;;;;;;;1.67;1.30;;;;;;;;;;5064806;28;20400;-68
2021/11/07 02:28:43;;;;;;;1.45;1.20;;;;;;;;;;5037646;28;20496;-69
2021/11/07 02:31:19;;;;;;;1.60;1.40;;;;;;;;;;5056034;28;20408;-69
2021/11/07 02:33:49;;;;;;;1.90;1.23;;;;;;;;;;5051383;28;20428;-69
2021/11/07 02:36:22;;;;;;;1.90;1.30;;;;;;;;;;5049612;28;20450;-69
2021/11/07 02:38:50;;;;;;;1.58;1.10;;;;;;;;;;5059803;28;20402;-69
2021/11/07 02:41:22;;;;;;;1.27;1.10;;;;;;;;;;5039697;28;20396;-69
2021/11/07 02:43:55;;;;;;;1.20;1.10;;;;;;;;;;5059433;28;20456;-69
2021/11/07 02:46:26;;;;;;;1.57;1.17;;;;;;;;;;5054162;28;20442;-69
2021/11/07 02:49:03;;;;;;;1.80;1.30;;;;;;;;;;5050044;28;20413;-69
2021/11/07 02:51:44;;;;;;;2.42;1.27;;;;;;;;;;5060742;28;20773;-69
2021/11/07 02:54:13;;;;;;;1.50;1.40;;;;;;;;;;5057806;28;20403;-69
2021/11/07 02:56:45;;;;;;;1.33;1.10;;;;;;;;;;5056902;28;20808;-69
2021/11/07 02:59:20;;;;;;;1.58;1.30;;;;;;;;;;5066792;28;20444;-69
2021/11/07 03:01:54;;;;;;;1.80;1.58;;;;;;;;;;5038956;28;20405;-69
2021/11/07 03:04:26;;;;;;;1.27;1.17;;;;;;;;;;5051450;28;20413;-69
2021/11/07 03:06:58;;;;;;;1.60;1.50;;;;;;;;;;5029405;28;20406;-69
2021/11/07 03:09:27;;;;;;;1.33;1.20;;;;;;;;;;5053724;28;20760;-69
2021/11/07 03:12:00;;;;;;;1.50;1.40;;;;;;;;;;5061494;28;20386;-69
2021/11/07 03:14:36;;;;;;;2.38;2.17;;;;;;;;;;5046451;28;20438;-69
2021/11/07 03:17:09;;;;;;;1.60;1.20;;;;;;;;;;5058208;28;20443;-69
2021/11/07 03:19:54;;;;;;;1.80;1.60;;;;;;;;;;5041895;28;20989;-69
2021/11/07 03:22:30;;;;;;;1.70;1.42;;;;;;;;;;5062278;28;20416;-69
2021/11/07 03:25:07;;;;;;;1.90;1.30;;;;;;;;;;5059978;28;20491;-69
2021/11/07 03:27:41;;;;;;;2.10;1.80;;;;;;;;;;5056895;28;20392;-69
2021/11/07 03:30:26;;;;;;;1.50;1.40;;;;;;;;;;5037429;28;20813;-69
2021/11/07 03:33:14;;;;;;;1.70;1.38;;;;;;;;;;5058482;28;20434;-69
2021/11/07 03:35:46;;;;;;;1.60;1.48;;;;;;;;;;5050220;28;20400;-69
2021/11/07 03:38:19;;;;;;;1.55;1.45;;;;;;;;;;5033158;28;20446;-69
2021/11/07 03:40:54;;;;;;;1.98;1.85;;;;;;;;;;5044544;28;20399;-69
2021/11/07 03:43:28;;;;;;;1.88;1.77;;;;;;;;;;5045292;28;20427;-69
2021/11/07 03:46:00;;;;;;;1.90;1.65;;;;;;;;;;5034135;28;20921;-69
2021/11/07 03:48:31;;;;;;;1.60;1.50;;;;;;;;;;5019361;28;20462;-68
2021/11/07 03:51:19;;;;;;;2.15;1.95;;;;;;;;;;5045185;28;20419;-69
2021/11/07 03:53:49;;;;;;;2.30;1.77;;;;;;;;;;5047483;28;20877;-69
2021/11/07 03:56:20;;;;;;;1.75;1.45;;;;;;;;;;5042042;28;20908;-69
2021/11/07 03:58:51;;;;;;;1.60;1.40;;;;;;;;;;5041108;28;20411;-70
2021/11/07 04:01:23;;;;;;;1.80;1.70;;;;;;;;;;5052730;28;20840;-69
2021/11/07 04:03:52;;;;;;;1.50;1.40;;;;;;;;;;5042463;28;20730;-70
2021/11/07 04:06:21;;;;;;;1.80;1.70;;;;;;;;;;5021819;28;20464;-69
2021/11/07 04:08:51;;;;;;;1.85;1.75;;;;;;;;;;5041377;28;20456;-69
2021/11/07 04:11:36;;;;;;;2.03;1.83;;;;;;;;;;5032328;28;20486;-69
2021/11/07 04:14:09;;;;;;;1.85;1.75;;;;;;;;;;5025761;28;21079;-69
2021/11/07 04:16:42;;;;;;;1.70;1.60;;;;;;;;;;5055144;28;20388;-69
2021/11/07 04:19:16;;;;;;;1.83;1.63;;;;;;;;;;5039077;28;20399;-69
2021/11/07 04:21:49;;;;;;;1.65;1.55;;;;;;;;;;5035044;28;20411;-69
2021/11/07 04:24:17;;;;;;;2.13;1.48;;;;;;;;;;5039620;28;20396;-69
2021/11/07 04:26:49;;;;;;;1.52;1.40;;;;;;;;;;5029214;28;20850;-69
2021/11/07 04:29:23;;;;;;;1.77;1.60;;;;;;;;;;5041365;28;20897;-69
2021/11/07 04:31:54;;;;;;;1.85;1.75;;;;;;;;;;5026656;28;20491;-69
2021/11/07 04:34:28;;;;;;;1.30;1.20;;;;;;;;;;5014398;28;20382;-69
2021/11/07 04:37:11;;;;;;;2.08;1.30;;;;;;;;;;5042826;28;20523;-69
2021/11/07 04:39:43;;;;;;;1.38;1.27;;;;;;;;;;5052410;28;20390;-69
2021/11/07 04:42:14;;;;;;;1.60;1.48;;;;;;;;;;5052403;28;20412;-69
2021/11/07 04:44:47;;;;;;;1.63;1.48;;;;;;;;;;5052005;28;20527;-69
2021/11/07 04:47:19;;;;;;;1.50;1.37;;;;;;;;;;5054911;28;20866;-69
2021/11/07 04:49:54;;;;;;;2.30;1.20;;;;;;;;;;5065074;28;20458;-68
2021/11/07 04:52:28;;;;;;;1.75;1.33;;;;;;;;;;5052835;28;20416;-68
2021/11/07 04:54:59;;;;;;;2.08;1.67;;;;;;;;;;5050300;28;20410;-69
2021/11/07 04:57:30;;;;;;;1.90;1.52;;;;;;;;;;5060091;28;20847;-69
2021/11/07 05:00:01;;;;;;;1.77;1.30;;;;;;;;;;5040452;28;20382;-68
2021/11/07 05:02:33;;;;;;;1.40;1.30;;;;;;;;;;5028858;28;21299;-69
2021/11/07 05:05:10;;;;;;;2.17;1.50;;;;;;;;;;5065993;28;20390;-69
2021/11/07 05:07:42;;;;;;;1.73;1.63;;;;;;;;;;5042010;28;20394;-68
2021/11/07 05:10:13;;;;;;;1.48;1.38;;;;;;;;;;5059778;28;20394;-68
2021/11/07 05:12:44;;;;;;;2.83;1.50;;;;;;;;;;5060832;28;20390;-68
2021/11/07 05:15:13;;;;;;;1.50;1.40;;;;;;;;;;5060027;28;20393;-68
2021/11/07 05:17:45;;;;;;;2.13;1.30;;;;;;;;;;5051791;28;20399;-68
2021/11/07 05:20:15;;;;;;;1.65;1.55;;;;;;;;;;5033588;28;20456;-68
2021/11/07 05:22:44;;;;;;;2.10;1.58;;;;;;;;;;5061483;28;20873;-68
2021/11/07 05:25:14;;;;;;;1.77;1.60;;;;;;;;;;5043780;28;20390;-68
2021/11/07 05:27:49;;;;;;;2.65;1.50;;;;;;;;;;5043502;28;20394;-68
2021/11/07 05:30:20;;;;;;;1.63;1.52;;;;;;;;;;5056904;28;21109;-68
2021/11/07 05:32:49;;;;;;;2.53;1.70;;;;;;;;;;5058876;28;20408;-68
2021/11/07 05:35:21;;;;;;;1.98;1.77;;;;;;;;;;5061746;28;20917;-68
2021/11/07 05:37:54;;;;;;;1.98;1.83;;;;;;;;;;5048331;28;20898;-69
2021/11/07 05:40:24;;;;;;;1.88;1.55;;;;;;;;;;5055409;28;20402;-68
2021/11/07 05:42:56;;;;;;;1.60;1.50;;;;;;;;;;5062662;28;20398;-68
2021/11/07 05:45:27;;;;;;;2.10;1.90;;;;;;;;;;5055819;28;20398;-68
2021/11/07 05:47:57;;;;;;;2.17;1.98;;;;;;;;;;5058595;28;20392;-68
2021/11/07 05:50:41;;;;;;;2.25;2.05;;;;;;;;;;5057288;28;20485;-68
2021/11/07 05:53:11;;;;;;;2.00;1.80;;;;;;;;;;5064824;28;20836;-68
2021/11/07 05:55:43;;;;;;;3.08;2.22;;;;;;;;;;5055212;28;20887;-68
2021/11/07 05:58:11;;;;;;;2.47;2.28;;;;;;;;;;5050535;28;20414;-68
2021/11/07 06:00:42;;;;;;;2.43;2.20;;;;;;;;;;5057294;28;20398;-68
2021/11/07 06:03:11;;;;;;;1.98;1.80;;;;;;;;;;5046400;28;20425;-68
2021/11/07 06:05:43;;;;;;;2.42;2.22;;;;;;;;;;5056970;28;20793;-68
2021/11/07 06:08:14;;;;;;;2.40;2.20;;;;;;;;;;5056532;28;20419;-68
2021/11/07 06:10:44;;;;;;;1.83;1.70;;;;;;;;;;5059362;28;20425;-68
2021/11/07 06:13:13;;;;;;;1.98;1.50;;;;;;;;;;5041414;28;20406;-69
2021/11/07 06:15:44;;;;;;;1.90;1.70;;;;;;;;;;5057514;28;20417;-68
2021/11/07 06:18:16;;;;;;;2.30;2.10;;;;;;;;;;5055041;28;20406;-68
2021/11/07 06:20:48;;;;;;;2.58;2.35;;;;;;;;;;5058444;28;20398;-68
2021/11/07 06:23:20;;;;;;;2.15;1.95;;;;;;;;;;5053079;28;20412;-68
2021/11/07 06:25:52;;;;;;;2.00;1.80;;;;;;;;;;5064887;28;20420;-68
2021/11/07 06:28:23;;;;;;;2.80;2.25;;;;;;;;;;5053274;28;20415;-68
2021/11/07 06:31:09;;;;;;;1.83;1.70;;;;;;;;;;5073468;28;20420;-68
2021/11/07 06:33:38;;;;;;;2.45;1.70;;;;;;;;;;5053002;28;20408;-66
2021/11/07 06:36:08;;;;;;;2.50;2.08;;;;;;;;;;5073158;28;20408;-68
2021/11/07 06:38:44;;;;;;;1.92;1.83;;;;;;;;;;5056308;28;20467;-69
2021/11/07 06:41:16;;;;;;;2.10;1.90;;;;;;;;;;5076395;28;20386;-69
2021/11/07 06:43:47;;;;;;;2.20;2.00;;;;;;;;;;5040459;28;20394;-69
2021/11/07 06:46:17;;;;;;;2.10;1.70;;;;;;;;;;5057792;28;21189;-68
2021/11/07 06:48:50;;;;;;;3.05;2.00;;;;;;;;;;5056774;28;20402;-68
2021/11/07 06:51:22;;;;;;;2.40;2.20;;;;;;;;;;5070740;28;20392;-69
2021/11/07 06:53:54;;;;;;;2.37;2.17;;;;;;;;;;5049234;28;20406;-69
2021/11/07 06:56:27;;;;;;;2.23;2.03;;;;;;;;;;5050177;28;20406;-70
2021/11/07 06:58:59;;;;;;;2.53;2.05;;;;;;;;;;5038060;28;20424;-70
2021/11/07 07:01:28;;;;;;;2.33;2.13;;;;;;;;;;5057461;28;20459;-69
2021/11/07 07:04:00;;;;;;;2.17;1.95;;;;;;;;;;5053911;28;20405;-70
2021/11/07 07:06:32;;;;;;;2.43;2.10;;;;;;;;;;5059714;28;20378;-69
2021/11/07 07:09:07;;;;;;;2.42;2.22;;;;;;;;;;5037939;28;20422;-69
2021/11/07 07:11:46;;;;;;;2.60;2.40;;;;;;;;;;5053684;28;20394;-67
2021/11/07 07:14:26;;;;;;;3.03;2.72;;;;;;;;;;5056129;28;20406;-67
2021/11/07 07:25:48;;;;;;;3.35;3.05;;;;;;;;;;5046555;28;20448;-69
2021/11/07 07:31:29;;;;;;;2.22;2.03;;;;;;;;;;5059801;28;20408;-67
2021/11/07 07:34:10;;;;;;;3.13;2.50;;;;;;;;;;5062735;28;20394;-66
2021/11/07 07:36:41;;;;;;;2.40;2.20;;;;;;;;;;5060929;28;20424;-67
2021/11/07 07:39:11;;;;;;;2.78;2.15;;;;;;;;;;5070973;28;20407;-68
2021/11/07 07:41:43;;;;;;;2.90;2.42;;;;;;;;;;5058449;28;20404;-68
2021/11/07 07:44:17;;;;;;;3.10;2.55;;;;;;;;;;5067946;28;20471;-68
2021/11/07 07:46:47;;;;;;;2.42;2.22;;;;;;;;;;5055791;28;20402;-68
2021/11/07 07:49:22;;;;;;;2.83;2.38;;;;;;;;;;5049984;28;20453;-68
2021/11/07 07:51:51;;;;;;;3.08;2.17;;;;;;;;;;5042787;28;20487;-68
2021/11/07 07:54:20;;;;;;;3.63;2.58;;;;;;;;;;5064106;28;20490;-68
2021/11/07 07:56:55;;;;;;;3.20;2.83;;;;;;;;;;5057439;28;20453;-68
2021/11/07 07:59:27;;;;;;;3.28;2.40;;;;;;;;;;5068061;28;20405;-69
2021/11/07 08:01:58;;;;;;;3.75;2.30;;;;;;;;;;5062016;28;20410;-70
2021/11/07 08:04:33;;;;;;;3.55;2.50;;;;;;;;;;5061042;28;20425;-69
2021/11/07 08:07:03;;;;;;;3.83;2.33;;;;;;;;;;5064401;28;20401;-69
2021/11/07 08:09:35;;;;;;;3.50;2.42;;;;;;;;;;5047564;28;20421;-69
2021/11/07 08:12:07;;;;;;;3.58;2.40;;;;;;;;;;5059532;28;20398;-66
2021/11/07 08:14:39;;;;;;;3.67;2.30;;;;;;;;;;5046532;28;20390;-66
2021/11/07 08:17:11;;;;;;;3.67;2.33;;;;;;;;;;5061965;28;20452;-68
2021/11/07 08:19:42;;;;;;;3.33;2.35;;;;;;;;;;5051192;28;20409;-68
2021/11/07 08:22:12;;;;;;;3.75;2.10;;;;;;;;;;5061841;28;20394;-68
2021/11/07 08:24:45;;;;;;;5.25;2.50;;;;;;;;;;5062455;28;20405;-68
2021/11/07 08:27:16;;;;;;;4.07;2.72;;;;;;;;;;5061098;28;20404;-68
2021/11/07 08:29:55;;;;;;;4.22;2.78;;;;;;;;;;5041598;28;21066;-69
2021/11/07 08:32:34;;;;;;;4.88;2.80;;;;;;;;;;5055021;28;20409;-68
2021/11/07 08:35:08;;;;;;;3.53;2.30;;;;;;;;;;5059084;28;20394;-68
2021/11/07 08:38:00;;;;;;;5.07;2.33;;;;;;;;;;5040154;28;20466;-69
2021/11/07 08:40:42;;;;;;;4.75;2.40;;;;;;;;;;5032905;28;20906;-67
2021/11/07 09:00:34;;;;;;;5.10;2.30;;;;;;;;;;5023041;28;20404;-70
2021/11/07 09:03:20;;;;;;;6.25;3.00;;;;;;;;;;5044299;28;20399;-69
2021/11/07 09:08:52;;;;;;;6.28;2.70;;;;;;;;;;4964742;28;20479;-68
2021/11/07 09:11:25;;;;;;;5.70;2.75;;;;;;;;;;4948497;28;20469;-66
2021/11/07 09:13:59;;;;;;;8.45;3.17;;;;;;;;;;5027713;28;20407;-69
2021/11/07 09:16:32;;;;;;;6.93;2.70;;;;;;;;;;5038650;28;20400;-68
2021/11/07 09:19:03;;;;;;;11.57;3.78;;;;;;;;;;5037738;28;20402;-68
2021/11/07 09:21:39;;;;;;;20.13;6.38;;;;;;;;;;5042905;28;20408;-70
2021/11/07 09:24:26;;;;;;;27.50;8.32;;;;;;;;;;5045388;28;20422;-70
2021/11/07 09:26:56;;;;;;;21.75;6.82;;;;;;;;;;5048805;28;20398;-70
2021/11/07 09:29:31;;;;;;;24.02;7.28;;;;;;;;;;5043659;28;20396;-71
2021/11/07 09:37:55;;;;;;;17.48;6.97;;;;;;;;;;5050918;28;20415;-71
2021/11/07 09:40:38;;;;;;;17.05;6.20;;;;;;;;;;5045563;28;20415;-67
2021/11/07 09:49:28;;;;;;;16.77;6.00;;;;;;;;;;5017693;28;20404;-68
2021/11/07 09:52:02;;;;;;;17.80;6.57;;;;;;;;;;5026292;28;20842;-71
2021/11/07 09:54:37;;;;;;;16.92;6.20;;;;;;;;;;5039976;28;20783;-71
2021/11/07 09:57:23;;;;;;;16.15;6.03;;;;;;;;;;5017301;28;20400;-71
2021/11/07 10:00:03;;;;;;;15.35;6.00;;;;;;;;;;5044975;28;20403;-71
2021/11/07 10:02:32;;;;;;;14.57;5.60;;;;;;;;;;5047383;28;21011;-69
2021/11/07 10:05:05;;;;;;;11.55;5.47;;;;;;;;;;5051871;28;20419;-69
2021/11/07 10:07:38;;;;;;;13.57;5.13;;;;;;;;;;5050565;28;20482;-69
2021/11/07 10:10:20;;;;;;;12.77;5.25;;;;;;;;;;5023718;28;20408;-69
2021/11/07 10:12:55;;;;;;;12.82;4.90;;;;;;;;;;5037572;28;20405;-69
2021/11/07 10:15:47;;;;;;;11.68;5.07;;;;;;;;;;5037665;28;20524;-69
2021/11/07 10:18:25;;;;;;;14.18;4.75;;;;;;;;;;5041256;28;20399;-70
2021/11/07 10:21:00;;;;;;;11.00;4.28;;;;;;;;;;5040742;28;20859;-67
2021/11/07 10:23:41;;;;;;;10.90;4.50;;;;;;;;;;5036457;28;20408;-67
2021/11/07 10:26:24;;;;;;;10.95;4.22;;;;;;;;;;5027240;28;20941;-68
2021/11/07 10:29:06;;;;;;;12.10;4.75;;;;;;;;;;5025064;28;20910;-69
2021/11/07 10:31:56;;;;;;;10.73;4.80;;;;;;;;;;5045877;28;20387;-69
2021/11/07 10:34:52;;;;;;;8.50;4.00;;;;;;;;;;5038866;28;20509;-70
2021/11/07 10:52:02;;;;;;;10.38;4.60;;;;;;;;;;5040931;28;21128;-69
2021/11/07 10:54:17;;;;;;;10.18;4.22;;;;;;;;;;5025570;28;20399;-66
2021/11/07 10:57:02;;;;;;;9.02;3.92;;;;;;;;;;5029864;28;20408;-66
2021/11/07 10:59:33;;;;;;;10.32;4.18;;;;;;;;;;5027523;28;20462;-66
2021/11/07 11:02:22;;;;;;;8.27;4.00;;;;;;;;;;5036332;28;20403;-68
2021/11/07 11:05:05;;;;;;;10.48;4.20;;;;;;;;;;5042356;28;20400;-68
2021/11/07 11:08:14;;;;;;;10.45;4.07;;;;;;;;;;5043912;28;20470;-69
2021/11/07 11:22:38;;;;;;;10.27;3.75;;;;;;;;;;5042135;28;20746;-70
2021/11/07 11:28:30;;;;;;;9.65;4.22;;;;;;;;;;5028799;28;20407;-67
2021/11/07 11:34:01;;;;;;;9.45;3.72;;;;;;;;;;5010456;28;20409;-69
2021/11/07 11:37:02;;;;;;;11.80;4.43;;;;;;;;;;5006747;28;20469;-69
2021/11/07 11:39:45;;;;;;;10.93;4.15;;;;;;;;;;5026029;28;20405;-69
2021/11/07 11:42:22;;;;;;;9.50;4.10;;;;;;;;;;5011651;28;20409;-68
2021/11/07 11:44:57;;;;;;;8.93;3.70;;;;;;;;;;5023052;28;20863;-67
2021/11/07 11:48:03;;;;;;;10.15;4.07;;;;;;;;;;5046532;28;20412;-66
2021/11/07 11:59:47;;;;;;;10.37;3.63;;;;;;;;;;5044176;28;20403;-66
2021/11/07 12:02:47;;;;;;;10.35;3.80;;;;;;;;;;5038449;28;20410;-67
2021/11/07 12:06:16;;;;;;;10.43;3.80;;;;;;;;;;5041266;28;20448;-67
2021/11/07 12:08:55;;;;;;;9.02;3.72;;;;;;;;;;5037430;28;20891;-67
2021/11/07 12:11:48;;;;;;;11.18;3.92;;;;;;;;;;5041438;28;20426;-69
2021/11/07 12:14:54;;;;;;;8.98;3.50;;;;;;;;;;5026763;28;20422;-69
2021/11/07 12:17:28;;;;;;;9.00;3.58;;;;;;;;;;5044840;28;20979;-67
2021/11/07 12:20:02;;;;;;;9.48;3.47;;;;;;;;;;5029330;28;21087;-68
2021/11/07 12:22:35;;;;;;;8.77;3.50;;;;;;;;;;5024636;28;20396;-70
2021/11/07 12:25:09;;;;;;;8.53;3.73;;;;;;;;;;5026282;28;20938;-71
2021/11/07 12:27:55;;;;;;;7.57;3.57;;;;;;;;;;5045529;28;20490;-69
2021/11/07 12:30:46;;;;;;;7.45;3.20;;;;;;;;;;5045687;28;20436;-67
2021/11/07 12:33:23;;;;;;;7.63;3.67;;;;;;;;;;5043313;28;20228;-67
2021/11/07 12:36:37;;;;;;;7.57;3.10;;;;;;;;;;5049793;28;20226;-68
2021/11/07 12:41:42;;;;;;;8.13;3.00;;;;;;;;;;5063341;28;20525;-68
2021/11/07 12:44:22;;;;;;;6.17;3.33;;;;;;;;;;5038673;28;20221;-68
2021/11/07 12:46:58;;;;;;;6.13;2.83;;;;;;;;;;5064781;28;20304;-66
2021/11/07 12:49:56;;;;;;;6.60;3.30;;;;;;;;;;5058152;28;20200;-66
2021/11/07 12:52:58;;;;;;;5.77;2.80;;;;;;;;;;5058891;28;20193;-69
2021/11/07 12:55:47;;;;;;;8.40;3.40;;;;;;;;;;5061008;28;20197;-68
2021/11/07 12:58:31;;;;;;;8.23;3.30;;;;;;;;;;5031886;28;20308;-69
2021/11/07 13:01:04;;;;;;;6.70;3.07;;;;;;;;;;5044092;28;20918;-68
2021/11/07 13:03:41;;;;;;;5.80;2.67;;;;;;;;;;5059049;28;20205;-67
2021/11/07 13:06:21;;;;;;;6.10;3.07;;;;;;;;;;5054487;28;20194;-67
2021/11/07 13:08:53;;;;;;;7.50;2.63;;;;;;;;;;5033951;28;20202;-67
2021/11/07 13:11:27;;;;;;;8.03;3.10;;;;;;;;;;5041483;28;20236;-67
2021/11/07 13:14:16;;;;;;;5.70;2.57;;;;;;;;;;5055438;28;20202;-67
2021/11/07 13:17:19;;;;;;;8.20;2.63;;;;;;;;;;5035813;28;20202;-68
2021/11/07 13:20:14;;;;;;;7.47;2.70;;;;;;;;;;5060116;28;20196;-68
2021/11/07 13:23:24;;;;;;;4.60;1.97;;;;;;;;;;5062035;28;20201;-67
2021/11/07 13:28:44;;;;;;;7.40;2.43;;;;;;;;;;5041060;28;20186;-68
2021/11/07 13:31:27;;;;;;;7.90;3.00;;;;;;;;;;5051972;28;20658;-68
2021/11/07 13:34:17;;;;;;;4.57;2.23;;;;;;;;;;5037057;28;20774;-67
2021/11/07 13:36:50;;;;;;;4.53;2.30;;;;;;;;;;5058590;28;20218;-67
2021/11/07 13:39:25;;;;;;;6.63;2.67;;;;;;;;;;5054604;28;20190;-68
2021/11/07 13:42:14;;;;;;;5.93;2.33;;;;;;;;;;5044292;28;20266;-66
2021/11/07 13:44:48;;;;;;;6.07;2.30;;;;;;;;;;5034148;28;20633;-65
2021/11/07 13:47:18;;;;;;;6.87;2.70;;;;;;;;;;5054552;28;20204;-67
2021/11/07 13:49:52;;;;;;;5.70;2.30;;;;;;;;;;5058315;28;20260;-67
2021/11/07 13:52:36;;;;;;;6.00;1.93;;;;;;;;;;5039393;28;20202;-67
2021/11/07 13:55:12;;;;;;;7.33;2.63;;;;;;;;;;5062820;28;24111;-67
2021/11/07 13:57:44;;;;;;;5.77;2.23;;;;;;;;;;5037650;28;20206;-66
2021/11/07 14:00:22;;;;;;;5.77;2.20;;;;;;;;;;5031802;28;20217;-67
2021/11/07 14:03:02;;;;;;;7.10;2.57;;;;;;;;;;5054587;28;20316;-68
2021/11/07 14:05:39;;;;;;;5.33;1.83;;;;;;;;;;5056862;28;20206;-68
2021/11/07 14:08:07;;;;;;;5.67;2.33;;;;;;;;;;5026661;28;20217;-68
2021/11/07 14:10:38;;;;;;;4.37;2.17;;;;;;;;;;5016737;28;20276;-67
2021/11/07 14:13:12;;;;;;;5.67;2.30;;;;;;;;;;5061912;28;20653;-67
2021/11/07 14:15:45;;;;;;;5.13;2.13;;;;;;;;;;5043830;28;20226;-68
2021/11/07 14:18:24;;;;;;;6.72;2.55;;;;;;;;;;5052602;28;20391;-68
2021/11/07 14:21:16;;;;;;;6.22;2.65;;;;;;;;;;5040503;28;20410;-66
2021/11/07 14:24:26;;;;;;;6.40;2.47;;;;;;;;;;5063389;28;20394;-65
2021/11/07 14:26:56;;;;;;;6.72;2.45;;;;;;;;;;5045321;28;20424;-66
2021/11/07 14:29:36;;;;;;;5.90;2.55;;;;;;;;;;5050215;28;20814;-66
2021/11/07 14:32:10;;;;;;;4.90;2.20;;;;;;;;;;5055626;28;20784;-68
2021/11/07 14:38:01;;;;;;;5.88;2.45;;;;;;;;;;5052929;28;20412;-66
2021/11/07 14:43:48;;;;;;;6.15;2.65;;;;;;;;;;5050243;28;20799;-66
2021/11/07 14:47:07;;;;;;;6.78;2.78;;;;;;;;;;5038072;28;20402;-66
2021/11/07 14:49:27;;;;;;;6.05;2.50;;;;;;;;;;5042055;28;20401;-66
2021/11/07 14:55:40;;;;;;;6.65;2.60;;;;;;;;;;5055636;28;20774;-67
2021/11/07 14:58:22;;;;;;;7.73;3.07;;;;;;;;;;5048901;28;20416;-67
2021/11/07 15:01:02;;;;;;;7.68;2.60;;;;;;;;;;5056811;28;20409;-67
2021/11/07 15:04:17;;;;;;;6.88;2.80;;;;;;;;;;5041463;28;20461;-67
2021/11/07 15:07:02;;;;;;;6.93;2.85;;;;;;;;;;5062964;28;20929;-66
2021/11/07 15:09:45;;;;;;;6.30;2.50;;;;;;;;;;5057309;28;20461;-66
2021/11/07 15:18:23;;;;;;;6.38;2.45;;;;;;;;;;5054621;28;20390;-67
2021/11/07 15:24:19;;;;;;;6.07;2.67;;;;;;;;;;5047736;28;20402;-67
2021/11/07 15:27:01;;;;;;;6.40;2.20;;;;;;;;;;5051851;28;20414;-67
2021/11/07 15:29:58;;;;;;;5.65;2.30;;;;;;;;;;5044654;28;20415;-66
2021/11/07 15:32:45;;;;;;;5.45;2.53;;;;;;;;;;5055800;28;20409;-67
2021/11/07 15:35:17;;;;;;;7.40;2.50;;;;;;;;;;5039795;28;20441;-67
2021/11/07 15:38:12;;;;;;;6.10;2.20;;;;;;;;;;5045518;28;20514;-66
2021/11/07 15:40:43;;;;;;;5.90;2.40;;;;;;;;;;5032778;28;20424;-68
2021/11/07 15:43:33;;;;;;;5.07;2.10;;;;;;;;;;5040408;28;20532;-67
2021/11/07 15:46:14;;;;;;;5.00;2.25;;;;;;;;;;5022946;28;20413;-66
2021/11/07 15:49:01;;;;;;;5.50;2.37;;;;;;;;;;5038458;28;20406;-66
2021/11/07 15:51:47;;;;;;;5.25;2.28;;;;;;;;;;5045577;28;20407;-66
2021/11/07 15:54:23;;;;;;;5.32;2.47;;;;;;;;;;5014423;28;20401;-66
2021/11/07 15:59:50;;;;;;;5.63;2.40;;;;;;;;;;5039693;28;20416;-68
2021/11/07 16:14:14;;;;;;;4.60;2.27;;;;;;;;;;5021823;28;20492;-66
2021/11/07 16:16:51;;;;;;;5.13;2.17;;;;;;;;;;5040181;28;20406;-65
2021/11/07 16:19:34;;;;;;;6.28;2.67;;;;;;;;;;5045978;28;20476;-66
2021/11/07 16:22:05;;;;;;;6.45;2.30;;;;;;;;;;5021152;28;20415;-65
2021/11/07 16:24:34;;;;;;;5.97;2.30;;;;;;;;;;5042690;28;20400;-65
2021/11/07 16:27:08;;;;;;;5.67;2.10;;;;;;;;;;5040756;28;20416;-65
2021/11/07 16:29:38;;;;;;;5.70;2.55;;;;;;;;;;5049181;28;20390;-65
2021/11/07 16:32:17;;;;;;;4.60;2.08;;;;;;;;;;5036808;28;20739;-65
2021/11/07 16:34:55;;;;;;;4.35;2.22;;;;;;;;;;5042983;28;20652;-65
2021/11/07 16:37:34;;;;;;;5.03;2.50;;;;;;;;;;5038899;28;20436;-66
2021/11/07 16:40:06;;;;;;;4.20;2.38;;;;;;;;;;5037900;28;20410;-65
2021/11/07 16:42:35;;;;;;;5.30;2.78;;;;;;;;;;5037045;28;20416;-65
2021/11/07 16:45:06;;;;;;;6.50;2.60;;;;;;;;;;5040405;28;20420;-65
2021/11/07 16:47:38;;;;;;;5.53;2.40;;;;;;;;;;5039370;28;21080;-65
2021/11/07 16:50:10;;;;;;;6.22;2.60;;;;;;;;;;5041426;28;20469;-65
2021/11/07 16:52:51;;;;;;;5.25;2.28;;;;;;;;;;5038014;28;20397;-65
2021/11/07 16:55:45;;;;;;;4.68;2.17;;;;;;;;;;5033387;28;20401;-65
2021/11/07 16:58:16;;;;;;;5.00;2.00;;;;;;;;;;5042414;28;20436;-65
2021/11/07 17:00:47;;;;;;;3.97;2.13;;;;;;;;;;5033022;28;20387;-65
2021/11/07 17:03:28;;;;;;;7.28;2.70;;;;;;;;;;5038465;28;20383;-65
2021/11/07 17:06:25;;;;;;;4.78;2.38;;;;;;;;;;5034390;28;20792;-65
2021/11/07 17:11:48;;;;;;;5.95;2.30;;;;;;;;;;5000094;28;20406;-65
2021/11/07 17:14:21;;;;;;;4.80;2.03;;;;;;;;;;5034251;28;20395;-65
2021/11/07 17:17:01;;;;;;;5.40;2.67;;;;;;;;;;5033096;28;20476;-65
2021/11/07 17:19:41;;;;;;;5.40;2.22;;;;;;;;;;5039795;28;20386;-65
2021/11/07 17:22:20;;;;;;;5.43;2.65;;;;;;;;;;5015384;28;20431;-65
2021/11/07 17:25:00;;;;;;;5.83;2.37;;;;;;;;;;5037630;28;20389;-65
2021/11/07 17:27:44;;;;;;;4.22;2.20;;;;;;;;;;5034829;28;20412;-65
2021/11/07 17:30:23;;;;;;;4.85;2.22;;;;;;;;;;5023237;28;20431;-65
2021/11/07 17:33:03;;;;;;;4.90;2.35;;;;;;;;;;5015947;28;21684;-65
2021/11/07 17:35:51;;;;;;;4.25;2.20;;;;;;;;;;5030217;28;20751;-65
2021/11/07 17:49:31;;;;;;;4.35;2.20;;;;;;;;;;5040106;28;20407;-65
2021/11/07 17:54:55;;;;;;;5.33;2.60;;;;;;;;;;5047245;28;20409;-65
2021/11/07 17:57:26;;;;;;;6.00;2.70;;;;;;;;;;5058841;28;20386;-65
2021/11/07 18:00:29;;;;;;;4.90;2.55;;;;;;;;;;5058143;28;20386;-65
2021/11/07 18:03:03;;;;;;;6.43;3.05;;;;;;;;;;5061855;28;20397;-65
2021/11/07 18:05:35;;;;;;;4.90;2.70;;;;;;;;;;5043553;28;20402;-65
2021/11/07 18:08:15;;;;;;;5.25;2.75;;;;;;;;;;5056006;28;20395;-65
2021/11/07 18:11:03;;;;;;;4.90;2.10;;;;;;;;;;5056223;28;20510;-65
2021/11/07 18:13:38;;;;;;;6.30;2.70;;;;;;;;;;5037485;28;20390;-65
2021/11/07 18:16:13;;;;;;;4.72;2.22;;;;;;;;;;5061065;28;20433;-65
2021/11/07 18:18:45;;;;;;;5.18;2.50;;;;;;;;;;5058401;28;20464;-65
2021/11/07 18:21:21;;;;;;;5.03;2.20;;;;;;;;;;5061286;28;20400;-65
2021/11/07 18:24:01;;;;;;;4.25;2.30;;;;;;;;;;5039754;28;20429;-66
2021/11/07 18:26:33;;;;;;;4.87;2.60;;;;;;;;;;5041210;28;20415;-66